PWSweather.com
Personal Weather Stations
Station Observations
ABQWX
Albuquerque, NM 87110

Albuquerque, NM 87110

Lat: 35.1305, Lon: -106.58571

Elevation: 5210

Station Type: LaCrosse

http://www.albuquerqueweather.info/

High Low Average
Temperature 78.4°F25.8°F 46.0°F7.8°F 61.1°F16.2°F
Dew Point 33.7°F0.9°F 19.2°F-7.1°F 25.8°F-3.4°F
Winds 10.6 mph SW17.1 mph SW 1.4 mph 2.3 mph 4.5 mph 7.2 mph
Wind Gusts 16.3 mph26.2 mph 2.5 mph4.0 mph 7.5 mph12.1 mph
Humidity 46% 13% 28%
Pressure 29.99 in1015.60 in 29.85 in1010.80 in -
Precipitation 0.00 in0.00 in - -
Hour Temp Dew Point Humidity Winds Wind Gusts Pressure Precip Precip Rate Daily Precip Total
12:00 AM 59.0°F15.0°C 25.0°F-3.9°C 27% 3.0 mph NW4.8 kmh NW 4.0 mph6.4 kmh 29.87 in1011.5 mb 0.00 in0.0 mm 0.00 in/hr0.0 mm/hr 0.00 in0.0 mm
12:30 AM 57.7°F14.3°C 26.5°F-3.1°C 30% 4.2 mph NNE6.8 kmh NNE 6.7 mph10.8 kmh 29.87 in1011.5 mb 0.00 in0.0 mm 0.00 in/hr0.0 mm/hr 0.00 in0.0 mm
01:00 AM 55.9°F13.3°C 27.2°F-2.7°C 33% 2.8 mph N4.5 kmh N 4.7 mph7.6 kmh 29.88 in1011.9 mb 0.00 in0.0 mm 0.00 in/hr0.0 mm/hr 0.00 in0.0 mm
01:30 AM 54.3°F12.4°C 25.8°F-3.4°C 33% 3.5 mph NW5.6 kmh NW 4.7 mph7.6 kmh 29.88 in1011.9 mb 0.00 in0.0 mm 0.00 in/hr0.0 mm/hr 0.00 in0.0 mm
02:00 AM 52.9°F11.6°C 25.2°F-3.8°C 34% 3.8 mph NW6.1 kmh NW 4.9 mph7.9 kmh 29.88 in1011.9 mb 0.00 in0.0 mm 0.00 in/hr0.0 mm/hr 0.00 in0.0 mm
02:30 AM 51.6°F10.9°C 26.2°F-3.2°C 37% 1.8 mph NNW2.9 kmh NNW 3.4 mph5.5 kmh 29.89 in1012.2 mb 0.00 in0.0 mm 0.00 in/hr0.0 mm/hr 0.00 in0.0 mm
03:00 AM 50.7°F10.4°C 27.2°F-2.7°C 40% 2.0 mph NNW3.2 kmh NNW 3.8 mph6.1 kmh 29.87 in1011.5 mb 0.00 in0.0 mm 0.00 in/hr0.0 mm/hr 0.00 in0.0 mm
03:30 AM 50.0°F10.0°C 27.2°F-2.7°C 41% 2.1 mph N3.4 kmh N 3.8 mph6.1 kmh 29.87 in1011.5 mb 0.00 in0.0 mm 0.00 in/hr0.0 mm/hr 0.00 in0.0 mm
04:00 AM 49.3°F9.6°C 26.5°F-3.1°C 41% 2.4 mph N3.9 kmh N 4.7 mph7.6 kmh 29.87 in1011.5 mb 0.00 in0.0 mm 0.00 in/hr0.0 mm/hr 0.00 in0.0 mm
04:30 AM 48.6°F9.2°C 26.5°F-3.1°C 42% 2.4 mph NNW3.9 kmh NNW 3.6 mph5.8 kmh 29.87 in1011.5 mb 0.00 in0.0 mm 0.00 in/hr0.0 mm/hr 0.00 in0.0 mm
05:00 AM 47.8°F8.8°C 26.4°F-3.1°C 43% 1.6 mph N2.6 kmh N 3.4 mph5.5 kmh 29.88 in1011.9 mb 0.00 in0.0 mm 0.00 in/hr0.0 mm/hr 0.00 in0.0 mm
05:30 AM 47.1°F8.4°C 26.3°F-3.2°C 44% 1.4 mph N2.3 kmh N 3.1 mph5.0 kmh 29.87 in1011.5 mb 0.00 in0.0 mm 0.00 in/hr0.0 mm/hr 0.00 in0.0 mm
06:00 AM 46.4°F8.0°C 25.6°F-3.6°C 44% 1.9 mph NNW3.1 kmh NNW 3.4 mph5.5 kmh 29.87 in1011.5 mb 0.00 in0.0 mm 0.00 in/hr0.0 mm/hr 0.00 in0.0 mm
06:30 AM 46.0°F7.8°C 25.3°F-3.7°C 44% 1.5 mph NNW2.4 kmh NNW 2.5 mph4.0 kmh 29.88 in1011.9 mb 0.00 in0.0 mm 0.00 in/hr0.0 mm/hr 0.00 in0.0 mm
07:00 AM 46.2°F7.9°C 26.6°F-3.0°C 46% 2.9 mph N4.7 kmh N 5.8 mph9.3 kmh 29.89 in1012.2 mb 0.00 in0.0 mm 0.00 in/hr0.0 mm/hr 0.00 in0.0 mm
07:30 AM 47.3°F8.5°C 27.0°F-2.8°C 45% 2.4 mph NW3.9 kmh NW 4.0 mph6.4 kmh 29.90 in1012.5 mb 0.00 in0.0 mm 0.00 in/hr0.0 mm/hr 0.00 in0.0 mm
08:00 AM 58.6°F14.8°C 31.7°F-0.2°C 36% 2.5 mph NW4.0 kmh NW 4.0 mph6.4 kmh 29.90 in1012.5 mb 0.00 in0.0 mm 0.00 in/hr0.0 mm/hr 0.00 in0.0 mm
08:30 AM 65.1°F18.4°C 33.7°F0.9°C 31% 3.1 mph NW5.0 kmh NW 4.9 mph7.9 kmh 29.91 in1012.9 mb 0.00 in0.0 mm 0.00 in/hr0.0 mm/hr 0.00 in0.0 mm
09:00 AM 63.0°F17.2°C 29.3°F-1.5°C 28% 2.5 mph NW4.0 kmh NW 3.8 mph6.1 kmh 29.91 in1012.9 mb 0.00 in0.0 mm 0.00 in/hr0.0 mm/hr 0.00 in0.0 mm
09:30 AM 59.9°F15.5°C 29.9°F-1.2°C 32% 2.3 mph N3.7 kmh N 3.6 mph5.8 kmh 29.91 in1012.9 mb 0.00 in0.0 mm 0.00 in/hr0.0 mm/hr 0.00 in0.0 mm
10:00 AM 64.8°F18.2°C 31.7°F-0.2°C 29% 2.5 mph N4.0 kmh N 4.0 mph6.4 kmh 29.90 in1012.5 mb 0.00 in0.0 mm 0.00 in/hr0.0 mm/hr 0.00 in0.0 mm
10:30 AM 69.3°F20.7°C 31.9°F-0.1°C 25% 1.8 mph N2.9 kmh N 3.8 mph6.1 kmh 29.90 in1012.5 mb 0.00 in0.0 mm 0.00 in/hr0.0 mm/hr 0.00 in0.0 mm
11:00 AM 72.1°F22.3°C 32.3°F0.2°C 23% 3.5 mph SSW5.6 kmh SSW 6.0 mph9.7 kmh 29.89 in1012.2 mb 0.00 in0.0 mm 0.00 in/hr0.0 mm/hr 0.00 in0.0 mm
11:30 AM 74.7°F23.7°C 32.1°F0.1°C 21% 4.5 mph S7.2 kmh S 6.5 mph10.5 kmh 29.88 in1011.9 mb 0.00 in0.0 mm 0.00 in/hr0.0 mm/hr 0.00 in0.0 mm
12:00 PM 75.4°F24.1°C 30.2°F-1.0°C 19% 3.5 mph SSE5.6 kmh SSE 5.6 mph9.0 kmh 29.87 in1011.5 mb 0.00 in0.0 mm 0.00 in/hr0.0 mm/hr 0.00 in0.0 mm
12:30 PM 78.4°F25.8°C 31.4°F-0.3°C 18% 6.6 mph SSW10.6 kmh SSW 11.4 mph18.3 kmh 29.86 in1011.2 mb 0.00 in0.0 mm 0.00 in/hr0.0 mm/hr 0.00 in0.0 mm
01:00 PM 66.6°F19.2°C 26.5°F-3.1°C 22% 5.1 mph SSW8.2 kmh SSW 7.6 mph12.2 kmh 29.97 in1014.9 mb 0.00 in0.0 mm 0.00 in/hr0.0 mm/hr 0.00 in0.0 mm
01:30 PM 70.7°F21.5°C 25.1°F-3.8°C 18% 4.8 mph SSE7.7 kmh SSE 10.1 mph16.3 kmh 29.94 in1013.9 mb 0.00 in0.0 mm 0.00 in/hr0.0 mm/hr 0.00 in0.0 mm
02:00 PM 71.4°F21.9°C 25.7°F-3.5°C 18% 4.7 mph S7.6 kmh S 8.1 mph13.0 kmh 29.93 in1013.5 mb 0.00 in0.0 mm 0.00 in/hr0.0 mm/hr 0.00 in0.0 mm
02:30 PM 71.8°F22.1°C 25.9°F-3.4°C 18% 3.3 mph S5.3 kmh S 5.1 mph8.2 kmh 29.92 in1013.2 mb 0.00 in0.0 mm 0.00 in/hr0.0 mm/hr 0.00 in0.0 mm
03:00 PM 71.9°F22.2°C 21.7°F-5.7°C 15% 5.3 mph S8.5 kmh S 7.6 mph12.2 kmh 29.91 in1012.9 mb 0.00 in0.0 mm 0.00 in/hr0.0 mm/hr 0.00 in0.0 mm
03:30 PM 73.6°F23.1°C 21.4°F-5.9°C 14% 5.1 mph S8.2 kmh S 13.4 mph21.6 kmh 29.89 in1012.2 mb 0.00 in0.0 mm 0.00 in/hr0.0 mm/hr 0.00 in0.0 mm
04:00 PM 73.9°F23.3°C 21.7°F-5.7°C 14% 6.1 mph S9.8 kmh S 8.5 mph13.7 kmh 29.87 in1011.5 mb 0.00 in0.0 mm 0.00 in/hr0.0 mm/hr 0.00 in0.0 mm
04:30 PM 75.0°F23.9°C 20.8°F-6.2°C 13% 7.0 mph S11.3 kmh S 12.3 mph19.8 kmh 29.86 in1011.2 mb 0.00 in0.0 mm 0.00 in/hr0.0 mm/hr 0.00 in0.0 mm
05:00 PM 72.5°F22.5°C 20.5°F-6.4°C 14% 8.8 mph SSE14.2 kmh SSE 13.4 mph21.6 kmh 29.86 in1011.2 mb 0.00 in0.0 mm 0.00 in/hr0.0 mm/hr 0.00 in0.0 mm
05:30 PM 70.7°F21.5°C 20.7°F-6.3°C 15% 7.7 mph SSE12.4 kmh SSE 12.1 mph19.5 kmh 29.85 in1010.8 mb 0.00 in0.0 mm 0.00 in/hr0.0 mm/hr 0.00 in0.0 mm
06:00 PM 67.8°F19.9°C 21.4°F-5.9°C 17% 9.6 mph S15.4 kmh S 15.0 mph24.1 kmh 29.85 in1010.8 mb 0.00 in0.0 mm 0.00 in/hr0.0 mm/hr 0.00 in0.0 mm
06:30 PM 65.5°F18.6°C 20.8°F-6.2°C 18% 8.0 mph S12.9 kmh S 11.4 mph18.3 kmh 29.85 in1010.8 mb 0.00 in0.0 mm 0.00 in/hr0.0 mm/hr 0.00 in0.0 mm
07:00 PM 64.2°F17.9°C 19.8°F-6.8°C 18% 7.4 mph S11.9 kmh S 13.2 mph21.2 kmh 29.85 in1010.8 mb 0.00 in0.0 mm 0.00 in/hr0.0 mm/hr 0.00 in0.0 mm
07:30 PM 63.1°F17.3°C 20.1°F-6.6°C 19% 6.5 mph SSW10.5 kmh SSW 10.1 mph16.3 kmh 29.86 in1011.2 mb 0.00 in0.0 mm 0.00 in/hr0.0 mm/hr 0.00 in0.0 mm
08:00 PM 62.0°F16.7°C 19.2°F-7.1°C 19% 6.4 mph SSE10.3 kmh SSE 13.9 mph22.4 kmh 29.86 in1011.2 mb 0.00 in0.0 mm 0.00 in/hr0.0 mm/hr 0.00 in0.0 mm
08:30 PM 60.8°F16.0°C 22.7°F-5.2°C 23% 10.0 mph S16.1 kmh S 16.3 mph26.2 kmh 29.88 in1011.9 mb 0.00 in0.0 mm 0.00 in/hr0.0 mm/hr 0.00 in0.0 mm
09:00 PM 59.7°F15.4°C 23.8°F-4.6°C 25% 6.6 mph SSW10.6 kmh SSW 10.3 mph16.6 kmh 29.90 in1012.5 mb 0.00 in0.0 mm 0.00 in/hr0.0 mm/hr 0.00 in0.0 mm
09:30 PM 58.8°F14.9°C 23.0°F-5.0°C 25% 4.1 mph WSW6.6 kmh WSW 6.9 mph11.1 kmh 29.92 in1013.2 mb 0.00 in0.0 mm 0.00 in/hr0.0 mm/hr 0.00 in0.0 mm
10:00 PM 57.7°F14.3°C 23.9°F-4.5°C 27% 6.2 mph SW10.0 kmh SW 11.0 mph17.7 kmh 29.94 in1013.9 mb 0.00 in0.0 mm 0.00 in/hr0.0 mm/hr 0.00 in0.0 mm
10:30 PM 56.1°F13.4°C 25.8°F-3.4°C 31% 10.6 mph SW17.1 kmh SW 13.6 mph21.9 kmh 29.97 in1014.9 mb 0.00 in0.0 mm 0.00 in/hr0.0 mm/hr 0.00 in0.0 mm
11:00 PM 54.3°F12.4°C 26.5°F-3.1°C 34% 7.2 mph SW11.6 kmh SW 11.9 mph19.2 kmh 29.98 in1015.2 mb 0.00 in0.0 mm 0.00 in/hr0.0 mm/hr 0.00 in0.0 mm
11:30 PM 52.7°F11.5°C 28.4°F-2.0°C 39% 5.1 mph SW8.2 kmh SW 9.2 mph14.8 kmh 29.99 in1015.6 mb 0.00 in0.0 mm 0.00 in/hr0.0 mm/hr 0.00 in0.0 mm